sensor_id;sensor_type;location;lat;lon;timestamp;pressure;altitude;pressure_sealevel;temperature;humidity
13695;BME280;6919;52.344;14.518;2024-02-26T00:02:27;99606.88;;;6.57;100.00
13695;BME280;6919;52.344;14.518;2024-02-26T00:04:57;99603.00;;;6.52;100.00
13695;BME280;6919;52.344;14.518;2024-02-26T00:07:25;99614.28;;;6.46;100.00
13695;BME280;6919;52.344;14.518;2024-02-26T00:09:53;99610.59;;;6.29;100.00
13695;BME280;6919;52.344;14.518;2024-02-26T00:12:22;99616.09;;;6.28;100.00
13695;BME280;6919;52.344;14.518;2024-02-26T00:14:50;99606.97;;;6.30;100.00
13695;BME280;6919;52.344;14.518;2024-02-26T00:17:19;99610.38;;;6.40;100.00
13695;BME280;6919;52.344;14.518;2024-02-26T00:19:48;99602.94;;;6.44;100.00
13695;BME280;6919;52.344;14.518;2024-02-26T00:22:16;99598.47;;;6.44;100.00
13695;BME280;6919;52.344;14.518;2024-02-26T00:24:45;99607.19;;;6.37;100.00
13695;BME280;6919;52.344;14.518;2024-02-26T00:27:13;99604.84;;;6.34;100.00
13695;BME280;6919;52.344;14.518;2024-02-26T00:29:41;99609.66;;;6.30;100.00
13695;BME280;6919;52.344;14.518;2024-02-26T00:32:09;99599.13;;;6.11;100.00
13695;BME280;6919;52.344;14.518;2024-02-26T00:38:45;99605.81;;;5.61;100.00
13695;BME280;6919;52.344;14.518;2024-02-26T00:41:18;99606.72;;;5.42;100.00
13695;BME280;6919;52.344;14.518;2024-02-26T00:43:47;99604.22;;;5.41;100.00
13695;BME280;6919;52.344;14.518;2024-02-26T00:46:15;99600.03;;;5.38;100.00
13695;BME280;6919;52.344;14.518;2024-02-26T00:48:43;99593.75;;;5.39;100.00
13695;BME280;6919;52.344;14.518;2024-02-26T00:51:12;99591.47;;;5.44;100.00
13695;BME280;6919;52.344;14.518;2024-02-26T00:53:40;99590.75;;;5.52;100.00
13695;BME280;6919;52.344;14.518;2024-02-26T00:56:10;99578.72;;;5.48;100.00
13695;BME280;6919;52.344;14.518;2024-02-26T00:58:38;99576.81;;;5.40;100.00
13695;BME280;6919;52.344;14.518;2024-02-26T01:01:07;99576.81;;;5.40;100.00
13695;BME280;6919;52.344;14.518;2024-02-26T01:03:35;99581.44;;;5.38;100.00
13695;BME280;6919;52.344;14.518;2024-02-26T01:06:04;99576.53;;;5.34;100.00
13695;BME280;6919;52.344;14.518;2024-02-26T01:08:35;99570.06;;;5.46;100.00
13695;BME280;6919;52.344;14.518;2024-02-26T01:11:04;99567.34;;;5.28;100.00
13695;BME280;6919;52.344;14.518;2024-02-26T01:13:34;99568.47;;;5.26;100.00
13695;BME280;6919;52.344;14.518;2024-02-26T01:16:03;99570.75;;;5.21;100.00
13695;BME280;6919;52.344;14.518;2024-02-26T01:18:32;99565.19;;;5.05;100.00
13695;BME280;6919;52.344;14.518;2024-02-26T01:21:01;99559.72;;;5.06;100.00
13695;BME280;6919;52.344;14.518;2024-02-26T01:23:31;99560.09;;;4.84;100.00
13695;BME280;6919;52.344;14.518;2024-02-26T01:25:59;99562.06;;;4.73;100.00
13695;BME280;6919;52.344;14.518;2024-02-26T01:28:27;99561.88;;;4.84;100.00
13695;BME280;6919;52.344;14.518;2024-02-26T01:30:57;99558.81;;;4.88;100.00
13695;BME280;6919;52.344;14.518;2024-02-26T01:33:26;99559.91;;;4.95;100.00
13695;BME280;6919;52.344;14.518;2024-02-26T01:35:55;99553.59;;;5.06;100.00
13695;BME280;6919;52.344;14.518;2024-02-26T01:38:23;99554.50;;;5.24;100.00
13695;BME280;6919;52.344;14.518;2024-02-26T01:40:52;99550.84;;;5.25;100.00
13695;BME280;6919;52.344;14.518;2024-02-26T01:43:20;99545.75;;;5.41;100.00
13695;BME280;6919;52.344;14.518;2024-02-26T01:45:48;99541.66;;;5.19;100.00
13695;BME280;6919;52.344;14.518;2024-02-26T01:48:18;99539.91;;;5.01;100.00
13695;BME280;6919;52.344;14.518;2024-02-26T01:50:46;99551.00;;;4.77;100.00
13695;BME280;6919;52.344;14.518;2024-02-26T01:53:16;99542.56;;;4.36;100.00
13695;BME280;6919;52.344;14.518;2024-02-26T01:55:45;99541.16;;;4.32;100.00
13695;BME280;6919;52.344;14.518;2024-02-26T01:58:14;99550.81;;;4.23;100.00
13695;BME280;6919;52.344;14.518;2024-02-26T02:00:43;99554.41;;;4.22;100.00
13695;BME280;6919;52.344;14.518;2024-02-26T02:03:12;99560.56;;;4.23;100.00
13695;BME280;6919;52.344;14.518;2024-02-26T02:05:42;99553.72;;;4.20;100.00
13695;BME280;6919;52.344;14.518;2024-02-26T02:08:13;99551.34;;;4.17;100.00
13695;BME280;6919;52.344;14.518;2024-02-26T02:10:42;99558.75;;;4.14;100.00
13695;BME280;6919;52.344;14.518;2024-02-26T02:13:10;99549.56;;;4.18;100.00
13695;BME280;6919;52.344;14.518;2024-02-26T02:15:39;99545.34;;;4.34;100.00
13695;BME280;6919;52.344;14.518;2024-02-26T02:18:07;99542.13;;;4.50;100.00
13695;BME280;6919;52.344;14.518;2024-02-26T02:20:37;99548.09;;;4.61;100.00
13695;BME280;6919;52.344;14.518;2024-02-26T02:23:05;99555.25;;;4.61;100.00
13695;BME280;6919;52.344;14.518;2024-02-26T02:25:34;99553.28;;;4.53;100.00
13695;BME280;6919;52.344;14.518;2024-02-26T02:28:02;99542.81;;;4.42;100.00
13695;BME280;6919;52.344;14.518;2024-02-26T02:30:32;99548.00;;;4.44;100.00
13695;BME280;6919;52.344;14.518;2024-02-26T02:33:03;99543.78;;;4.51;100.00
13695;BME280;6919;52.344;14.518;2024-02-26T02:35:31;99555.94;;;4.53;100.00
13695;BME280;6919;52.344;14.518;2024-02-26T02:38:01;99549.53;;;4.46;100.00
13695;BME280;6919;52.344;14.518;2024-02-26T02:40:29;99551.63;;;4.24;100.00
13695;BME280;6919;52.344;14.518;2024-02-26T02:42:57;99555.00;;;4.26;100.00
13695;BME280;6919;52.344;14.518;2024-02-26T02:45:26;99559.16;;;4.28;100.00
13695;BME280;6919;52.344;14.518;2024-02-26T02:47:55;99556.66;;;4.27;100.00
13695;BME280;6919;52.344;14.518;2024-02-26T02:50:23;99566.72;;;4.42;100.00
13695;BME280;6919;52.344;14.518;2024-02-26T02:52:51;99569.63;;;4.49;100.00
13695;BME280;6919;52.344;14.518;2024-02-26T02:55:20;99566.44;;;4.45;100.00
13695;BME280;6919;52.344;14.518;2024-02-26T02:57:48;99574.38;;;4.45;100.00
13695;BME280;6919;52.344;14.518;2024-02-26T03:00:17;99564.19;;;4.41;100.00
13695;BME280;6919;52.344;14.518;2024-02-26T03:02:46;99572.69;;;4.35;100.00
13695;BME280;6919;52.344;14.518;2024-02-26T03:05:14;99561.81;;;4.38;100.00
13695;BME280;6919;52.344;14.518;2024-02-26T03:07:43;99556.66;;;4.55;100.00
13695;BME280;6919;52.344;14.518;2024-02-26T03:10:11;99553.69;;;4.68;100.00
13695;BME280;6919;52.344;14.518;2024-02-26T03:12:42;99542.31;;;4.94;100.00
13695;BME280;6919;52.344;14.518;2024-02-26T03:15:10;99548.69;;;5.11;100.00
13695;BME280;6919;52.344;14.518;2024-02-26T03:17:38;99549.06;;;5.16;100.00
13695;BME280;6919;52.344;14.518;2024-02-26T03:20:09;99549.72;;;5.27;100.00
13695;BME280;6919;52.344;14.518;2024-02-26T03:22:38;99544.97;;;5.31;100.00
13695;BME280;6919;52.344;14.518;2024-02-26T03:25:08;99548.59;;;5.30;100.00
13695;BME280;6919;52.344;14.518;2024-02-26T03:27:36;99556.47;;;5.22;100.00
13695;BME280;6919;52.344;14.518;2024-02-26T03:30:07;99546.44;;;5.06;100.00
13695;BME280;6919;52.344;14.518;2024-02-26T03:32:36;99550.41;;;4.93;100.00
13695;BME280;6919;52.344;14.518;2024-02-26T03:35:05;99545.16;;;4.64;100.00
13695;BME280;6919;52.344;14.518;2024-02-26T03:37:34;99551.47;;;4.54;100.00
13695;BME280;6919;52.344;14.518;2024-02-26T03:40:04;99553.28;;;4.53;100.00
13695;BME280;6919;52.344;14.518;2024-02-26T03:42:33;99554.13;;;4.54;100.00
13695;BME280;6919;52.344;14.518;2024-02-26T03:45:01;99557.47;;;4.46;100.00
13695;BME280;6919;52.344;14.518;2024-02-26T03:47:30;99549.69;;;4.26;100.00
13695;BME280;6919;52.344;14.518;2024-02-26T03:49:59;99557.47;;;3.99;100.00
13695;BME280;6919;52.344;14.518;2024-02-26T03:52:27;99559.72;;;3.94;100.00
13695;BME280;6919;52.344;14.518;2024-02-26T03:54:55;99567.81;;;3.92;100.00
13695;BME280;6919;52.344;14.518;2024-02-26T03:57:23;99564.31;;;3.92;100.00
13695;BME280;6919;52.344;14.518;2024-02-26T03:59:52;99560.84;;;3.91;100.00
13695;BME280;6919;52.344;14.518;2024-02-26T04:02:20;99560.41;;;3.96;100.00
13695;BME280;6919;52.344;14.518;2024-02-26T04:04:51;99560.00;;;4.00;100.00
13695;BME280;6919;52.344;14.518;2024-02-26T04:07:19;99562.09;;;4.06;100.00
13695;BME280;6919;52.344;14.518;2024-02-26T04:09:48;99570.47;;;3.92;100.00
13695;BME280;6919;52.344;14.518;2024-02-26T04:12:16;99559.84;;;3.83;100.00
13695;BME280;6919;52.344;14.518;2024-02-26T04:14:45;99572.78;;;3.76;100.00
13695;BME280;6919;52.344;14.518;2024-02-26T04:17:14;99574.75;;;3.74;100.00
13695;BME280;6919;52.344;14.518;2024-02-26T04:19:42;99579.22;;;3.74;100.00
13695;BME280;6919;52.344;14.518;2024-02-26T04:22:12;99569.84;;;3.70;100.00
13695;BME280;6919;52.344;14.518;2024-02-26T04:24:40;99564.69;;;3.68;100.00
13695;BME280;6919;52.344;14.518;2024-02-26T04:27:08;99564.69;;;3.68;100.00
13695;BME280;6919;52.344;14.518;2024-02-26T04:29:36;99571.13;;;3.75;100.00
13695;BME280;6919;52.344;14.518;2024-02-26T04:32:05;99573.63;;;3.77;100.00
13695;BME280;6919;52.344;14.518;2024-02-26T04:34:34;99565.28;;;3.72;100.00
13695;BME280;6919;52.344;14.518;2024-02-26T04:37:02;99573.75;;;3.66;100.00
13695;BME280;6919;52.344;14.518;2024-02-26T04:39:32;99579.03;;;3.56;100.00
13695;BME280;6919;52.344;14.518;2024-02-26T04:42:00;99577.22;;;3.57;100.00
13695;BME280;6919;52.344;14.518;2024-02-26T04:44:31;99590.16;;;3.50;100.00
13695;BME280;6919;52.344;14.518;2024-02-26T04:46:59;99582.06;;;3.42;100.00
13695;BME280;6919;52.344;14.518;2024-02-26T04:49:28;99586.22;;;3.35;100.00
13695;BME280;6919;52.344;14.518;2024-02-26T04:51:57;99587.44;;;3.31;100.00
13695;BME280;6919;52.344;14.518;2024-02-26T04:54:25;99579.78;;;3.28;100.00
13695;BME280;6919;52.344;14.518;2024-02-26T04:56:55;99592.75;;;3.31;100.00
13695;BME280;6919;52.344;14.518;2024-02-26T04:59:23;99602.75;;;3.28;100.00
13695;BME280;6919;52.344;14.518;2024-02-26T05:01:51;99602.75;;;3.28;100.00
13695;BME280;6919;52.344;14.518;2024-02-26T05:04:20;99601.75;;;3.19;100.00
13695;BME280;6919;52.344;14.518;2024-02-26T05:06:48;99606.66;;;3.24;100.00
13695;BME280;6919;52.344;14.518;2024-02-26T05:09:16;99615.88;;;3.29;100.00
13695;BME280;6919;52.344;14.518;2024-02-26T05:11:45;99617.03;;;3.36;100.00
13695;BME280;6919;52.344;14.518;2024-02-26T05:14:14;99620.06;;;3.32;100.00
13695;BME280;6919;52.344;14.518;2024-02-26T05:16:43;99620.78;;;3.34;100.00
13695;BME280;6919;52.344;14.518;2024-02-26T05:19:11;99619.13;;;3.33;100.00
13695;BME280;6919;52.344;14.518;2024-02-26T05:21:40;99618.94;;;3.34;100.00
13695;BME280;6919;52.344;14.518;2024-02-26T05:24:09;99611.84;;;3.35;100.00
13695;BME280;6919;52.344;14.518;2024-02-26T05:26:38;99613.41;;;3.37;100.00
13695;BME280;6919;52.344;14.518;2024-02-26T05:29:06;99611.88;;;3.44;100.00
13695;BME280;6919;52.344;14.518;2024-02-26T05:31:35;99618.44;;;3.40;100.00
13695;BME280;6919;52.344;14.518;2024-02-26T05:34:04;99614.50;;;3.35;100.00
13695;BME280;6919;52.344;14.518;2024-02-26T05:36:32;99624.81;;;3.28;100.00
13695;BME280;6919;52.344;14.518;2024-02-26T05:39:01;99623.25;;;3.26;100.00
13695;BME280;6919;52.344;14.518;2024-02-26T05:41:30;99628.09;;;3.21;100.00
13695;BME280;6919;52.344;14.518;2024-02-26T05:43:59;99630.63;;;3.22;100.00
13695;BME280;6919;52.344;14.518;2024-02-26T05:46:28;99637.72;;;3.22;100.00
13695;BME280;6919;52.344;14.518;2024-02-26T05:48:57;99639.53;;;3.21;100.00
13695;BME280;6919;52.344;14.518;2024-02-26T05:51:26;99648.84;;;3.16;100.00
13695;BME280;6919;52.344;14.518;2024-02-26T05:53:54;99643.22;;;3.30;100.00
13695;BME280;6919;52.344;14.518;2024-02-26T05:56:22;99650.69;;;3.25;100.00
13695;BME280;6919;52.344;14.518;2024-02-26T05:58:50;99652.22;;;3.27;100.00
13695;BME280;6919;52.344;14.518;2024-02-26T06:01:20;99647.97;;;3.36;100.00
13695;BME280;6919;52.344;14.518;2024-02-26T06:03:48;99657.88;;;3.34;100.00
13695;BME280;6919;52.344;14.518;2024-02-26T06:06:18;99662.50;;;3.41;100.00
13695;BME280;6919;52.344;14.518;2024-02-26T06:08:46;99663.97;;;3.55;100.00
13695;BME280;6919;52.344;14.518;2024-02-26T06:11:15;99663.84;;;3.56;100.00
13695;BME280;6919;52.344;14.518;2024-02-26T06:13:44;99672.72;;;3.55;100.00
13695;BME280;6919;52.344;14.518;2024-02-26T06:16:12;99669.78;;;3.49;100.00
13695;BME280;6919;52.344;14.518;2024-02-26T06:18:41;99675.25;;;3.57;100.00
13695;BME280;6919;52.344;14.518;2024-02-26T06:21:10;99671.78;;;3.56;100.00
13695;BME280;6919;52.344;14.518;2024-02-26T06:23:40;99664.97;;;3.63;100.00
13695;BME280;6919;52.344;14.518;2024-02-26T06:26:08;99671.13;;;3.73;100.00
13695;BME280;6919;52.344;14.518;2024-02-26T06:28:37;99670.84;;;3.67;100.00
13695;BME280;6919;52.344;14.518;2024-02-26T06:31:07;99671.22;;;3.62;100.00
13695;BME280;6919;52.344;14.518;2024-02-26T06:33:36;99674.59;;;3.64;100.00
13695;BME280;6919;52.344;14.518;2024-02-26T06:36:05;99674.34;;;3.67;100.00
13695;BME280;6919;52.344;14.518;2024-02-26T06:38:33;99676.31;;;3.75;100.00
13695;BME280;6919;52.344;14.518;2024-02-26T06:41:03;99683.06;;;3.58;100.00
13695;BME280;6919;52.344;14.518;2024-02-26T06:43:31;99683.78;;;3.60;100.00
13695;BME280;6919;52.344;14.518;2024-02-26T06:46:00;99683.16;;;3.47;100.00
13695;BME280;6919;52.344;14.518;2024-02-26T06:48:28;99677.59;;;3.80;100.00
13695;BME280;6919;52.344;14.518;2024-02-26T06:50:58;99677.56;;;4.10;100.00
13695;BME280;6919;52.344;14.518;2024-02-26T06:53:26;99684.00;;;4.17;100.00
13695;BME280;6919;52.344;14.518;2024-02-26T06:55:55;99683.84;;;4.19;100.00
13695;BME280;6919;52.344;14.518;2024-02-26T06:58:25;99691.06;;;4.07;100.00
13695;BME280;6919;52.344;14.518;2024-02-26T07:00:53;99687.63;;;4.16;100.00
13695;BME280;6919;52.344;14.518;2024-02-26T07:03:21;99691.94;;;4.17;100.00
13695;BME280;6919;52.344;14.518;2024-02-26T07:05:51;99690.16;;;4.27;100.00
13695;BME280;6919;52.344;14.518;2024-02-26T07:08:20;99685.44;;;4.59;100.00
13695;BME280;6919;52.344;14.518;2024-02-26T07:10:48;99707.25;;;4.72;100.00
13695;BME280;6919;52.344;14.518;2024-02-26T07:13:16;99703.63;;;4.92;100.00
13695;BME280;6919;52.344;14.518;2024-02-26T07:15:46;99701.50;;;5.05;100.00
13695;BME280;6919;52.344;14.518;2024-02-26T07:18:14;99701.91;;;5.20;100.00
13695;BME280;6919;52.344;14.518;2024-02-26T07:20:43;99698.53;;;5.27;100.00
13695;BME280;6919;52.344;14.518;2024-02-26T07:23:11;99706.78;;;5.43;100.00
13695;BME280;6919;52.344;14.518;2024-02-26T07:25:39;99700.38;;;5.82;100.00
13695;BME280;6919;52.344;14.518;2024-02-26T07:28:11;99700.28;;;6.01;100.00
13695;BME280;6919;52.344;14.518;2024-02-26T07:30:40;99704.59;;;6.12;100.00
13695;BME280;6919;52.344;14.518;2024-02-26T07:33:09;99691.59;;;6.09;100.00
13695;BME280;6919;52.344;14.518;2024-02-26T07:35:38;99698.56;;;6.37;100.00
13695;BME280;6919;52.344;14.518;2024-02-26T07:38:06;99700.19;;;6.21;100.00
13695;BME280;6919;52.344;14.518;2024-02-26T07:40:45;99690.72;;;6.36;100.00
13695;BME280;6919;52.344;14.518;2024-02-26T07:43:25;99699.03;;;6.50;100.00
13695;BME280;6919;52.344;14.518;2024-02-26T07:45:53;99695.75;;;6.56;100.00
13695;BME280;6919;52.344;14.518;2024-02-26T07:48:23;99702.69;;;6.67;100.00
13695;BME280;6919;52.344;14.518;2024-02-26T07:50:51;99706.81;;;6.79;100.00
13695;BME280;6919;52.344;14.518;2024-02-26T07:53:20;99704.00;;;6.80;100.00
13695;BME280;6919;52.344;14.518;2024-02-26T07:55:48;99701.94;;;6.74;100.00
13695;BME280;6919;52.344;14.518;2024-02-26T07:58:17;99708.09;;;6.92;100.00
13695;BME280;6919;52.344;14.518;2024-02-26T08:00:45;99712.78;;;7.16;100.00
13695;BME280;6919;52.344;14.518;2024-02-26T08:03:14;99706.56;;;7.07;100.00
13695;BME280;6919;52.344;14.518;2024-02-26T08:05:44;99708.91;;;7.10;100.00
13695;BME280;6919;52.344;14.518;2024-02-26T08:08:13;99698.25;;;7.28;100.00
13695;BME280;6919;52.344;14.518;2024-02-26T08:10:41;99695.75;;;7.09;100.00
13695;BME280;6919;52.344;14.518;2024-02-26T08:13:10;99702.88;;;7.26;100.00
13695;BME280;6919;52.344;14.518;2024-02-26T08:15:38;99697.09;;;7.30;100.00
13695;BME280;6919;52.344;14.518;2024-02-26T08:18:06;99690.81;;;7.14;100.00
13695;BME280;6919;52.344;14.518;2024-02-26T08:20:35;99702.28;;;7.32;100.00
13695;BME280;6919;52.344;14.518;2024-02-26T08:23:05;99699.16;;;7.36;100.00
13695;BME280;6919;52.344;14.518;2024-02-26T08:25:34;99696.84;;;7.41;100.00
13695;BME280;6919;52.344;14.518;2024-02-26T08:28:03;99689.44;;;7.35;100.00
13695;BME280;6919;52.344;14.518;2024-02-26T08:30:32;99694.38;;;7.48;100.00
13695;BME280;6919;52.344;14.518;2024-02-26T08:33:01;99697.19;;;7.46;100.00
13695;BME280;6919;52.344;14.518;2024-02-26T08:35:29;99693.25;;;7.50;100.00
13695;BME280;6919;52.344;14.518;2024-02-26T08:37:58;99693.47;;;7.65;100.00
13695;BME280;6919;52.344;14.518;2024-02-26T08:40:27;99694.38;;;7.73;100.00
13695;BME280;6919;52.344;14.518;2024-02-26T08:42:56;99698.13;;;7.88;100.00
13695;BME280;6919;52.344;14.518;2024-02-26T08:45:24;99699.06;;;8.05;100.00
13695;BME280;6919;52.344;14.518;2024-02-26T08:47:56;99695.16;;;8.25;100.00
13695;BME280;6919;52.344;14.518;2024-02-26T08:50:26;99695.84;;;8.35;100.00
13695;BME280;6919;52.344;14.518;2024-02-26T08:52:54;99696.44;;;7.87;100.00
13695;BME280;6919;52.344;14.518;2024-02-26T08:55:23;99696.72;;;8.51;100.00
13695;BME280;6919;52.344;14.518;2024-02-26T08:57:52;99698.50;;;8.84;100.00
13695;BME280;6919;52.344;14.518;2024-02-26T09:00:21;99690.47;;;8.92;100.00
13695;BME280;6919;52.344;14.518;2024-02-26T09:02:49;99695.47;;;8.87;100.00
13695;BME280;6919;52.344;14.518;2024-02-26T09:05:18;99691.13;;;8.78;100.00
13695;BME280;6919;52.344;14.518;2024-02-26T09:07:46;99688.44;;;8.78;100.00
13695;BME280;6919;52.344;14.518;2024-02-26T09:10:15;99683.44;;;9.07;100.00
13695;BME280;6919;52.344;14.518;2024-02-26T09:12:44;99689.97;;;9.21;100.00
13695;BME280;6919;52.344;14.518;2024-02-26T09:15:14;99699.50;;;9.24;100.00
13695;BME280;6919;52.344;14.518;2024-02-26T09:17:42;99694.31;;;9.30;100.00
13695;BME280;6919;52.344;14.518;2024-02-26T09:20:12;99693.97;;;9.33;100.00
13695;BME280;6919;52.344;14.518;2024-02-26T09:22:42;99696.28;;;9.68;100.00
13695;BME280;6919;52.344;14.518;2024-02-26T09:25:10;99690.06;;;9.76;100.00
13695;BME280;6919;52.344;14.518;2024-02-26T09:27:38;99699.97;;;9.59;100.00
13695;BME280;6919;52.344;14.518;2024-02-26T09:30:11;99699.47;;;9.56;100.00
13695;BME280;6919;52.344;14.518;2024-02-26T09:32:41;99697.97;;;9.21;100.00
13695;BME280;6919;52.344;14.518;2024-02-26T09:35:14;99702.69;;;9.19;100.00
13695;BME280;6919;52.344;14.518;2024-02-26T09:37:42;99707.19;;;9.27;100.00
13695;BME280;6919;52.344;14.518;2024-02-26T09:40:12;99704.19;;;9.22;100.00
13695;BME280;6919;52.344;14.518;2024-02-26T09:42:44;99705.69;;;9.32;100.00
13695;BME280;6919;52.344;14.518;2024-02-26T09:45:18;99710.38;;;9.30;100.00
13695;BME280;6919;52.344;14.518;2024-02-26T09:47:50;99708.19;;;9.10;100.00
13695;BME280;6919;52.344;14.518;2024-02-26T09:50:20;99704.34;;;9.20;100.00
13695;BME280;6919;52.344;14.518;2024-02-26T09:52:52;99707.88;;;9.21;100.00
13695;BME280;6919;52.344;14.518;2024-02-26T09:55:20;99719.22;;;9.07;100.00
13695;BME280;6919;52.344;14.518;2024-02-26T09:57:51;99708.69;;;9.21;100.00
13695;BME280;6919;52.344;14.518;2024-02-26T10:00:22;99718.19;;;8.83;100.00
13695;BME280;6919;52.344;14.518;2024-02-26T10:02:52;99714.19;;;9.12;100.00
13695;BME280;6919;52.344;14.518;2024-02-26T10:05:21;99705.34;;;9.35;100.00
13695;BME280;6919;52.344;14.518;2024-02-26T10:07:51;99700.81;;;8.71;100.00
13695;BME280;6919;52.344;14.518;2024-02-26T10:10:20;99700.00;;;9.27;100.00
13695;BME280;6919;52.344;14.518;2024-02-26T10:12:50;99699.31;;;9.17;100.00
13695;BME280;6919;52.344;14.518;2024-02-26T10:15:18;99698.66;;;9.39;100.00
13695;BME280;6919;52.344;14.518;2024-02-26T10:17:46;99703.00;;;9.48;100.00
13695;BME280;6919;52.344;14.518;2024-02-26T10:20:18;99696.97;;;9.46;100.00
13695;BME280;6919;52.344;14.518;2024-02-26T10:22:49;99701.59;;;9.76;100.00
13695;BME280;6919;52.344;14.518;2024-02-26T10:25:19;99706.66;;;9.71;100.00
13695;BME280;6919;52.344;14.518;2024-02-26T10:27:48;99707.63;;;9.78;100.00
13695;BME280;6919;52.344;14.518;2024-02-26T10:30:18;99711.31;;;9.85;100.00
13695;BME280;6919;52.344;14.518;2024-02-26T10:32:48;99708.25;;;9.96;100.00
13695;BME280;6919;52.344;14.518;2024-02-26T10:35:19;99704.72;;;9.96;100.00
13695;BME280;6919;52.344;14.518;2024-02-26T10:37:49;99704.25;;;9.92;100.00
13695;BME280;6919;52.344;14.518;2024-02-26T10:40:18;99698.69;;;9.94;100.00
13695;BME280;6919;52.344;14.518;2024-02-26T10:42:47;99700.44;;;10.33;100.00
13695;BME280;6919;52.344;14.518;2024-02-26T10:45:15;99704.38;;;10.53;100.00
13695;BME280;6919;52.344;14.518;2024-02-26T10:47:43;99702.22;;;9.94;100.00
13695;BME280;6919;52.344;14.518;2024-02-26T10:50:14;99701.38;;;10.79;100.00
13695;BME280;6919;52.344;14.518;2024-02-26T10:52:45;99703.75;;;10.96;100.00
13695;BME280;6919;52.344;14.518;2024-02-26T10:55:16;99696.34;;;10.76;100.00
13695;BME280;6919;52.344;14.518;2024-02-26T10:57:49;99695.16;;;10.78;100.00
13695;BME280;6919;52.344;14.518;2024-02-26T11:00:19;99693.91;;;11.11;100.00
13695;BME280;6919;52.344;14.518;2024-02-26T11:02:48;99699.69;;;11.00;100.00
13695;BME280;6919;52.344;14.518;2024-02-26T11:05:17;99698.03;;;11.22;100.00
13695;BME280;6919;52.344;14.518;2024-02-26T11:07:49;99696.81;;;11.47;100.00
13695;BME280;6919;52.344;14.518;2024-02-26T11:10:18;99692.47;;;11.60;100.00
13695;BME280;6919;52.344;14.518;2024-02-26T11:12:49;99695.94;;;11.69;100.00
13695;BME280;6919;52.344;14.518;2024-02-26T11:15:19;99691.31;;;11.77;100.00
13695;BME280;6919;52.344;14.518;2024-02-26T11:17:48;99694.91;;;11.70;100.00
13695;BME280;6919;52.344;14.518;2024-02-26T11:20:19;99698.44;;;11.70;100.00
13695;BME280;6919;52.344;14.518;2024-02-26T11:22:49;99688.91;;;11.82;100.00
13695;BME280;6919;52.344;14.518;2024-02-26T11:25:18;99695.41;;;12.03;100.00
13695;BME280;6919;52.344;14.518;2024-02-26T11:27:52;99686.69;;;12.15;100.00
13695;BME280;6919;52.344;14.518;2024-02-26T11:30:23;99694.28;;;12.26;100.00
13695;BME280;6919;52.344;14.518;2024-02-26T11:32:53;99700.41;;;12.35;100.00
13695;BME280;6919;52.344;14.518;2024-02-26T11:35:23;99691.03;;;12.45;100.00
13695;BME280;6919;52.344;14.518;2024-02-26T11:37:54;99695.09;;;12.41;100.00
13695;BME280;6919;52.344;14.518;2024-02-26T11:40:25;99690.63;;;12.48;100.00
13695;BME280;6919;52.344;14.518;2024-02-26T11:42:54;99690.13;;;11.95;100.00
13695;BME280;6919;52.344;14.518;2024-02-26T11:45:50;99687.38;;;12.53;100.00
13695;BME280;6919;52.344;14.518;2024-02-26T11:48:24;99693.81;;;12.37;100.00
13695;BME280;6919;52.344;14.518;2024-02-26T11:50:55;99691.16;;;12.73;100.00
13695;BME280;6919;52.344;14.518;2024-02-26T11:53:26;99695.44;;;12.67;100.00
13695;BME280;6919;52.344;14.518;2024-02-26T11:56:20;99689.66;;;13.06;100.00
13695;BME280;6919;52.344;14.518;2024-02-26T11:58:57;99684.94;;;13.08;100.00
13695;BME280;6919;52.344;14.518;2024-02-26T12:01:52;99690.31;;;13.29;100.00
13695;BME280;6919;52.344;14.518;2024-02-26T12:04:24;99690.75;;;13.32;100.00
13695;BME280;6919;52.344;14.518;2024-02-26T12:06:57;99687.59;;;13.50;100.00
13695;BME280;6919;52.344;14.518;2024-02-26T12:09:36;99690.56;;;13.61;100.00
13695;BME280;6919;52.344;14.518;2024-02-26T12:12:07;99691.69;;;13.73;100.00
13695;BME280;6919;52.344;14.518;2024-02-26T12:14:39;99685.97;;;13.55;100.00
13695;BME280;6919;52.344;14.518;2024-02-26T12:17:20;99684.78;;;13.92;100.00
13695;BME280;6919;52.344;14.518;2024-02-26T12:19:48;99691.97;;;14.19;100.00
13695;BME280;6919;52.344;14.518;2024-02-26T12:22:17;99689.69;;;14.50;100.00
13695;BME280;6919;52.344;14.518;2024-02-26T12:24:47;99691.63;;;14.22;100.00
13695;BME280;6919;52.344;14.518;2024-02-26T12:27:15;99699.84;;;14.14;100.00
13695;BME280;6919;52.344;14.518;2024-02-26T12:29:43;99693.03;;;14.18;100.00
13695;BME280;6919;52.344;14.518;2024-02-26T12:32:13;99690.31;;;14.18;100.00
13695;BME280;6919;52.344;14.518;2024-02-26T12:34:41;99696.34;;;14.20;100.00
13695;BME280;6919;52.344;14.518;2024-02-26T12:37:11;99691.78;;;14.20;100.00
13695;BME280;6919;52.344;14.518;2024-02-26T12:39:40;99692.47;;;14.22;100.00
13695;BME280;6919;52.344;14.518;2024-02-26T12:42:09;99705.19;;;14.35;100.00
13695;BME280;6919;52.344;14.518;2024-02-26T12:44:38;99698.31;;;14.05;100.00
13695;BME280;6919;52.344;14.518;2024-02-26T12:47:06;99698.81;;;14.15;100.00
13695;BME280;6919;52.344;14.518;2024-02-26T12:49:34;99700.31;;;13.90;100.00
13695;BME280;6919;52.344;14.518;2024-02-26T12:52:04;99712.13;;;13.89;100.00
13695;BME280;6919;52.344;14.518;2024-02-26T12:54:33;99710.88;;;13.85;100.00
13695;BME280;6919;52.344;14.518;2024-02-26T12:57:08;99708.91;;;14.06;100.00
13695;BME280;6919;52.344;14.518;2024-02-26T12:59:38;99705.50;;;13.91;100.00
13695;BME280;6919;52.344;14.518;2024-02-26T13:02:06;99711.81;;;14.05;100.00
13695;BME280;6919;52.344;14.518;2024-02-26T13:04:36;99715.44;;;13.91;100.00
13695;BME280;6919;52.344;14.518;2024-02-26T13:07:05;99720.50;;;14.28;100.00
13695;BME280;6919;52.344;14.518;2024-02-26T13:09:34;99714.34;;;14.13;100.00
13695;BME280;6919;52.344;14.518;2024-02-26T13:12:05;99721.97;;;14.03;100.00
13695;BME280;6919;52.344;14.518;2024-02-26T13:14:35;99730.13;;;14.16;100.00